WXM80 ListenWXM80 Stop

You find our weather info also at:

UK Metoffice

WeatherCloud

Weather Underground

Northeastern Weather Network

AWEKAS

Citizen Weather Observer Program (CWOP)

HAMweather, WeatherForYou, PWS Weather


Weather Underground History page Text

Daily Summary for April 16, 2017 Units:  Both    English   Metric
« Previous Day
Next Day »
Daily Weekly Monthly Yearly Custom
  High: Low: Average:
Temperature: 87.2 °F /  30.7 °C 55.0 °F /  12.8 °C 70.4 °F /  21.3 °C
Dew Point: 61.8 °F /  16.6 °C 52.7 °F /  11.5 °C 57.4 °F /  14.1 °C
Humidity: 96 % 35 % 68 %
Wind Speed: 11.2 mph /  18 km/h - 4.5 mph /  7.2 km/h
Wind Gust: 20.7 mph /  33.3 km/h - -
Wind:- - SW
Pressure: 30.04 in /  1017.2 hPa 29.71 in /  1006 hPa -
Precipitation: 0.00 in /  0 mm    
Historical Graphs
 
 
Tabular Data for April 16, 2017
Time Temperature Dew Point Pressure Wind Wind Speed Wind Gust Humidity Rainfall Rate (Hourly)
00:04 55.8 °F /  13.2 °C 52.9 °F /  11.6 °C 30.04 in /  1017.2 hPa SSW 4.5 mph /  7.2 km/h 4.6 mph /  7.4 km/h 90 % 0.00 in /  0 mm
00:09 55.8 °F /  13.2 °C 52.9 °F /  11.6 °C 30.04 in /  1017.2 hPa SW 4.2 mph /  6.8 km/h 6.9 mph /  11.1 km/h 90 % 0.00 in /  0 mm
00:14 55.7 °F /  13.2 °C 53.1 °F /  11.7 °C 30.04 in /  1017.2 hPa SSW 5.7 mph /  9.2 km/h 9.2 mph /  14.8 km/h 91 % 0.00 in /  0 mm
00:19 55.8 °F /  13.2 °C 53.2 °F /  11.8 °C 30.03 in /  1016.8 hPa SSW 5.5 mph /  8.9 km/h 8.1 mph /  13 km/h 91 % 0.00 in /  0 mm
00:24 55.8 °F /  13.2 °C 53.2 °F /  11.8 °C 30.02 in /  1016.5 hPa SSW 2.9 mph /  4.7 km/h 8.1 mph /  13 km/h 91 % 0.00 in /  0 mm
00:29 55.8 °F /  13.2 °C 53.2 °F /  11.8 °C 30.03 in /  1016.8 hPa WSW 4.3 mph /  6.9 km/h 10.4 mph /  16.7 km/h 91 % 0.00 in /  0 mm
00:34 55.8 °F /  13.2 °C 53.2 °F /  11.8 °C 30.02 in /  1016.5 hPa South 3.5 mph /  5.6 km/h 5.8 mph /  9.3 km/h 91 % 0.00 in /  0 mm
00:40 55.8 °F /  13.2 °C 53.2 °F /  11.8 °C 30.02 in /  1016.5 hPa SSW 4.3 mph /  6.9 km/h 8.1 mph /  13 km/h 91 % 0.00 in /  0 mm
00:45 55.8 °F /  13.2 °C 53.2 °F /  11.8 °C 30.02 in /  1016.5 hPa WSW 1.2 mph /  1.9 km/h 3.5 mph /  5.6 km/h 91 % 0.00 in /  0 mm
00:50 55.8 °F /  13.2 °C 53.2 °F /  11.8 °C 30.02 in /  1016.5 hPa SW 3.6 mph /  5.8 km/h 5.0 mph /  8 km/h 91 % 0.00 in /  0 mm
00:55 55.8 °F /  13.2 °C 53.2 °F /  11.8 °C 30.02 in /  1016.5 hPa SSW 1.2 mph /  1.9 km/h 4.6 mph /  7.4 km/h 91 % 0.00 in /  0 mm
01:00 55.7 °F /  13.2 °C 53.1 °F /  11.7 °C 30.01 in /  1016.1 hPa SSW 5.1 mph /  8.2 km/h 9.2 mph /  14.8 km/h 91 % 0.00 in /  0 mm
01:05 55.7 °F /  13.2 °C 53.4 °F /  11.9 °C 30.02 in /  1016.5 hPa SW 2.9 mph /  4.7 km/h 4.6 mph /  7.4 km/h 92 % 0.00 in /  0 mm
01:10 55.8 °F /  13.2 °C 53.5 °F /  11.9 °C 30.01 in /  1016.1 hPa SW 4.8 mph /  7.7 km/h 6.0 mph /  9.7 km/h 92 % 0.00 in /  0 mm
01:15 55.7 °F /  13.2 °C 53.4 °F /  11.9 °C 30.02 in /  1016.5 hPa WSW 2.0 mph /  3.2 km/h 5.8 mph /  9.3 km/h 92 % 0.00 in /  0 mm
01:20 55.7 °F /  13.2 °C 53.4 °F /  11.9 °C 30.01 in /  1016.1 hPa SSW 2.8 mph /  4.5 km/h 3.5 mph /  5.6 km/h 92 % 0.00 in /  0 mm
01:25 55.7 °F /  13.2 °C 53.4 °F /  11.9 °C 30.01 in /  1016.1 hPa SSW 2.2 mph /  3.5 km/h 4.0 mph /  6.4 km/h 92 % 0.00 in /  0 mm
01:30 55.6 °F /  13.1 °C 53.3 °F /  11.8 °C 30.01 in /  1016.1 hPa SSW 0.9 mph /  1.4 km/h 4.6 mph /  7.4 km/h 92 % 0.00 in /  0 mm
01:35 55.6 °F /  13.1 °C 53.3 °F /  11.8 °C 30.01 in /  1016.1 hPa SSW 2.7 mph /  4.3 km/h 3.5 mph /  5.6 km/h 92 % 0.00 in /  0 mm
01:40 55.6 °F /  13.1 °C 53.3 °F /  11.8 °C 30.01 in /  1016.1 hPa SW 1.9 mph /  3.1 km/h 3.5 mph /  5.6 km/h 92 % 0.00 in /  0 mm
01:45 55.5 °F /  13.1 °C 53.2 °F /  11.8 °C 30.00 in /  1015.8 hPa SSW 2.3 mph /  3.7 km/h 3.0 mph /  4.8 km/h 92 % 0.00 in /  0 mm
01:50 55.5 °F /  13.1 °C 53.2 °F /  11.8 °C 30.00 in /  1015.8 hPa SSW 0.8 mph /  1.3 km/h 2.3 mph /  3.7 km/h 92 % 0.00 in /  0 mm
01:55 55.5 °F /  13.1 °C 53.2 °F /  11.8 °C 30.00 in /  1015.8 hPa SSW 2.1 mph /  3.4 km/h 3.5 mph /  5.6 km/h 92 % 0.00 in /  0 mm
02:00 55.5 °F /  13.1 °C 53.2 °F /  11.8 °C 30.00 in /  1015.8 hPa SSW 1.6 mph /  2.6 km/h 4.0 mph /  6.4 km/h 92 % 0.00 in /  0 mm
02:05 55.4 °F /  13 °C 53.1 °F /  11.7 °C 30.00 in /  1015.8 hPa Calm   2.3 mph /  3.7 km/h 92 % 0.00 in /  0 mm
02:10 55.4 °F /  13 °C 53.1 °F /  11.7 °C 30.00 in /  1015.8 hPa SW 0.1 mph /  0.2 km/h 1.2 mph /  1.9 km/h 92 % 0.00 in /  0 mm
02:15 55.4 °F /  13 °C 53.1 °F /  11.7 °C 30.00 in /  1015.8 hPa Calm   1.0 mph /  1.6 km/h 92 % 0.00 in /  0 mm
02:20 55.3 °F /  12.9 °C 53.0 °F /  11.7 °C 29.99 in /  1015.5 hPa Calm     92 % 0.00 in /  0 mm
02:25 55.2 °F /  12.9 °C 52.9 °F /  11.6 °C 29.99 in /  1015.5 hPa Calm   1.2 mph /  1.9 km/h 92 % 0.00 in /  0 mm
02:30 55.1 °F /  12.8 °C 52.8 °F /  11.6 °C 29.99 in /  1015.5 hPa SW 0.4 mph /  0.6 km/h 1.2 mph /  1.9 km/h 92 % 0.00 in /  0 mm
02:35 55.1 °F /  12.8 °C 52.8 °F /  11.6 °C 29.99 in /  1015.5 hPa Calm   1.0 mph /  1.6 km/h 92 % 0.00 in /  0 mm
02:40 55.0 °F /  12.8 °C 52.7 °F /  11.5 °C 29.99 in /  1015.5 hPa SSW 0.7 mph /  1.1 km/h 5.0 mph /  8 km/h 92 % 0.00 in /  0 mm
02:45 55.0 °F /  12.8 °C 53.0 °F /  11.7 °C 29.99 in /  1015.5 hPa SSW 4.2 mph /  6.8 km/h 4.6 mph /  7.4 km/h 93 % 0.00 in /  0 mm
02:50 55.0 °F /  12.8 °C 53.0 °F /  11.7 °C 29.99 in /  1015.5 hPa WSW 1.0 mph /  1.6 km/h 2.3 mph /  3.7 km/h 93 % 0.00 in /  0 mm
02:55 55.1 °F /  12.8 °C 53.4 °F /  11.9 °C 29.99 in /  1015.5 hPa SW 3.2 mph /  5.1 km/h 5.8 mph /  9.3 km/h 94 % 0.00 in /  0 mm
03:00 55.3 °F /  12.9 °C 53.6 °F /  12 °C 29.99 in /  1015.5 hPa SSW 4.6 mph /  7.4 km/h 8.1 mph /  13 km/h 94 % 0.00 in /  0 mm
03:05 55.4 °F /  13 °C 53.7 °F /  12.1 °C 29.98 in /  1015.1 hPa WSW 4.2 mph /  6.8 km/h 6.9 mph /  11.1 km/h 94 % 0.00 in /  0 mm
03:10 55.5 °F /  13.1 °C 53.8 °F /  12.1 °C 29.98 in /  1015.1 hPa SSW 5.8 mph /  9.3 km/h 10.4 mph /  16.7 km/h 94 % 0.00 in /  0 mm
03:15 55.7 °F /  13.2 °C 54.3 °F /  12.4 °C 29.98 in /  1015.1 hPa SSW 5.0 mph /  8 km/h 7.0 mph /  11.3 km/h 95 % 0.00 in /  0 mm
03:20 55.8 °F /  13.2 °C 54.4 °F /  12.4 °C 29.97 in /  1014.8 hPa SW 5.4 mph /  8.7 km/h 10.4 mph /  16.7 km/h 95 % 0.00 in /  0 mm
03:25 55.9 °F /  13.3 °C 54.5 °F /  12.5 °C 29.97 in /  1014.8 hPa SSW 3.2 mph /  5.1 km/h 6.9 mph /  11.1 km/h 95 % 0.00 in /  0 mm
03:30 55.9 °F /  13.3 °C 54.5 °F /  12.5 °C 29.97 in /  1014.8 hPa SW 6.4 mph /  10.3 km/h 9.2 mph /  14.8 km/h 95 % 0.00 in /  0 mm
03:35 56.0 °F /  13.3 °C 54.6 °F /  12.6 °C 29.97 in /  1014.8 hPa SW 3.5 mph /  5.6 km/h 5.8 mph /  9.3 km/h 95 % 0.00 in /  0 mm
03:40 56.1 °F /  13.4 °C 54.7 °F /  12.6 °C 29.96 in /  1014.4 hPa SW 3.3 mph /  5.3 km/h 6.9 mph /  11.1 km/h 95 % 0.00 in /  0 mm
03:45 56.2 °F /  13.4 °C 54.8 °F /  12.7 °C 29.96 in /  1014.4 hPa SW 2.9 mph /  4.7 km/h 5.8 mph /  9.3 km/h 95 % 0.00 in /  0 mm
03:50 56.3 °F /  13.5 °C 54.9 °F /  12.7 °C 29.96 in /  1014.4 hPa SSW 4.0 mph /  6.4 km/h 8.1 mph /  13 km/h 95 % 0.00 in /  0 mm
03:55 56.4 °F /  13.6 °C 55.0 °F /  12.8 °C 29.96 in /  1014.4 hPa SSW 4.0 mph /  6.4 km/h 6.9 mph /  11.1 km/h 95 % 0.00 in /  0 mm
04:00 56.4 °F /  13.6 °C 55.0 °F /  12.8 °C 29.96 in /  1014.4 hPa SSW 4.5 mph /  7.2 km/h 6.9 mph /  11.1 km/h 95 % 0.00 in /  0 mm
04:05 56.5 °F /  13.6 °C 55.1 °F /  12.8 °C 29.96 in /  1014.4 hPa SW 3.3 mph /  5.3 km/h 5.8 mph /  9.3 km/h 95 % 0.00 in /  0 mm
04:10 56.6 °F /  13.7 °C 55.2 °F /  12.9 °C 29.95 in /  1014.1 hPa SW 2.7 mph /  4.3 km/h 4.6 mph /  7.4 km/h 95 % 0.00 in /  0 mm
04:15 56.7 °F /  13.7 °C 55.3 °F /  12.9 °C 29.95 in /  1014.1 hPa SW 3.2 mph /  5.1 km/h 4.6 mph /  7.4 km/h 95 % 0.00 in /  0 mm
04:21 56.7 °F /  13.7 °C 55.3 °F /  12.9 °C 29.95 in /  1014.1 hPa WSW 2.7 mph /  4.3 km/h 4.0 mph /  6.4 km/h 95 % 0.00 in /  0 mm
04:26 56.8 °F /  13.8 °C 55.4 °F /  13 °C 29.95 in /  1014.1 hPa SSW 3.8 mph /  6.1 km/h 5.8 mph /  9.3 km/h 95 % 0.00 in /  0 mm
04:31 56.9 °F /  13.8 °C 55.5 °F /  13.1 °C 29.95 in /  1014.1 hPa SSW 3.0 mph /  4.8 km/h 4.6 mph /  7.4 km/h 95 % 0.00 in /  0 mm
04:36 56.9 °F /  13.8 °C 55.5 °F /  13.1 °C 29.95 in /  1014.1 hPa SW 3.2 mph /  5.1 km/h 5.8 mph /  9.3 km/h 95 % 0.00 in /  0 mm
04:41 56.9 °F /  13.8 °C 55.5 °F /  13.1 °C 29.95 in /  1014.1 hPa WSW 1.4 mph /  2.3 km/h 3.5 mph /  5.6 km/h 95 % 0.00 in /  0 mm
04:46 56.9 °F /  13.8 °C 55.5 °F /  13.1 °C 29.95 in /  1014.1 hPa SW 1.9 mph /  3.1 km/h 3.5 mph /  5.6 km/h 95 % 0.00 in /  0 mm
04:51 56.9 °F /  13.8 °C 55.5 °F /  13.1 °C 29.95 in /  1014.1 hPa SW 1.8 mph /  2.9 km/h 4.6 mph /  7.4 km/h 95 % 0.00 in /  0 mm
04:56 57.0 °F /  13.9 °C 55.6 °F /  13.1 °C 29.95 in /  1014.1 hPa SW 3.3 mph /  5.3 km/h 4.0 mph /  6.4 km/h 95 % 0.00 in /  0 mm
05:01 57.0 °F /  13.9 °C 55.6 °F /  13.1 °C 29.95 in /  1014.1 hPa WSW 1.4 mph /  2.3 km/h 2.3 mph /  3.7 km/h 95 % 0.00 in /  0 mm
05:06 56.9 °F /  13.8 °C 55.5 °F /  13.1 °C 29.95 in /  1014.1 hPa SSW 1.7 mph /  2.7 km/h 3.5 mph /  5.6 km/h 95 % 0.00 in /  0 mm
05:11 56.9 °F /  13.8 °C 55.5 °F /  13.1 °C 29.95 in /  1014.1 hPa WSW 2.0 mph /  3.2 km/h 6.0 mph /  9.7 km/h 95 % 0.00 in /  0 mm
05:16 56.9 °F /  13.8 °C 55.5 °F /  13.1 °C 29.95 in /  1014.1 hPa SSW 2.6 mph /  4.2 km/h 4.6 mph /  7.4 km/h 95 % 0.00 in /  0 mm
05:21 56.9 °F /  13.8 °C 55.5 °F /  13.1 °C 29.95 in /  1014.1 hPa SW 1.0 mph /  1.6 km/h 4.6 mph /  7.4 km/h 95 % 0.00 in /  0 mm
05:22 56.9 °F /  13.8 °C 55.5 °F /  13.1 °C 29.95 in /  1014.1 hPa SW 2.5 mph /  4 km/h 4.0 mph /  6.4 km/h 95 % 0.00 in /  0 mm
05:27 56.9 °F /  13.8 °C 55.5 °F /  13.1 °C 29.95 in /  1014.1 hPa SSW 3.6 mph /  5.8 km/h 4.6 mph /  7.4 km/h 95 % 0.00 in /  0 mm
05:32 56.9 °F /  13.8 °C 55.5 °F /  13.1 °C 29.95 in /  1014.1 hPa SW 1.7 mph /  2.7 km/h 3.5 mph /  5.6 km/h 95 % 0.00 in /  0 mm
05:37 56.9 °F /  13.8 °C 55.5 °F /  13.1 °C 29.95 in /  1014.1 hPa SW 2.0 mph /  3.2 km/h 5.0 mph /  8 km/h 95 % 0.00 in /  0 mm
05:42 56.9 °F /  13.8 °C 55.5 °F /  13.1 °C 29.95 in /  1014.1 hPa SW 2.0 mph /  3.2 km/h 5.0 mph /  8 km/h 95 % 0.00 in /  0 mm
05:47 57.0 °F /  13.9 °C 55.6 °F /  13.1 °C 29.95 in /  1014.1 hPa SW 2.0 mph /  3.2 km/h 5.0 mph /  8 km/h 95 % 0.00 in /  0 mm
05:52 57.1 °F /  13.9 °C 55.7 °F /  13.2 °C 29.95 in /  1014.1 hPa SW 5.0 mph /  8 km/h 7.0 mph /  11.3 km/h 95 % 0.00 in /  0 mm
05:57 57.2 °F /  14 °C 55.8 °F /  13.2 °C 29.95 in /  1014.1 hPa SW 2.9 mph /  4.7 km/h 3.5 mph /  5.6 km/h 95 % 0.00 in /  0 mm
06:02 57.3 °F /  14.1 °C 55.9 °F /  13.3 °C 29.94 in /  1013.8 hPa SW 2.6 mph /  4.2 km/h 4.6 mph /  7.4 km/h 95 % 0.00 in /  0 mm
06:07 57.4 °F /  14.1 °C 56.3 °F /  13.5 °C 29.94 in /  1013.8 hPa SW 2.6 mph /  4.2 km/h 3.5 mph /  5.6 km/h 96 % 0.00 in /  0 mm
06:12 57.5 °F /  14.2 °C 56.1 °F /  13.4 °C 29.94 in /  1013.8 hPa WSW 2.5 mph /  4 km/h 5.8 mph /  9.3 km/h 95 % 0.00 in /  0 mm
06:17 57.6 °F /  14.2 °C 56.2 °F /  13.4 °C 29.94 in /  1013.8 hPa SSW 3.4 mph /  5.5 km/h 5.0 mph /  8 km/h 95 % 0.00 in /  0 mm
06:22 57.6 °F /  14.2 °C 56.2 °F /  13.4 °C 29.94 in /  1013.8 hPa SW 2.8 mph /  4.5 km/h 5.8 mph /  9.3 km/h 95 % 0.00 in /  0 mm
06:27 57.7 °F /  14.3 °C 56.3 °F /  13.5 °C 29.95 in /  1014.1 hPa SSW 3.9 mph /  6.3 km/h 6.9 mph /  11.1 km/h 95 % 0.00 in /  0 mm
06:32 57.8 °F /  14.3 °C 56.7 °F /  13.7 °C 29.95 in /  1014.1 hPa WSW 3.7 mph /  6 km/h 5.8 mph /  9.3 km/h 96 % 0.00 in /  0 mm
06:37 57.9 °F /  14.4 °C 56.8 °F /  13.8 °C 29.95 in /  1014.1 hPa WSW 2.9 mph /  4.7 km/h 5.8 mph /  9.3 km/h 96 % 0.00 in /  0 mm
06:42 58.0 °F /  14.4 °C 56.6 °F /  13.7 °C 29.95 in /  1014.1 hPa SSW 3.0 mph /  4.8 km/h 4.6 mph /  7.4 km/h 95 % 0.00 in /  0 mm
06:47 58.1 °F /  14.5 °C 56.7 °F /  13.7 °C 29.95 in /  1014.1 hPa SW 4.4 mph /  7.1 km/h 6.9 mph /  11.1 km/h 95 % 0.00 in /  0 mm
06:52 58.2 °F /  14.6 °C 56.8 °F /  13.8 °C 29.95 in /  1014.1 hPa SW 3.3 mph /  5.3 km/h 5.8 mph /  9.3 km/h 95 % 0.00 in /  0 mm
06:57 58.4 °F /  14.7 °C 57.0 °F /  13.9 °C 29.95 in /  1014.1 hPa SSW 3.1 mph /  5 km/h 4.6 mph /  7.4 km/h 95 % 0.00 in /  0 mm
07:02 58.5 °F /  14.7 °C 57.1 °F /  13.9 °C 29.95 in /  1014.1 hPa WSW 4.5 mph /  7.2 km/h 8.1 mph /  13 km/h 95 % 0.00 in /  0 mm
07:08 58.8 °F /  14.9 °C 57.4 °F /  14.1 °C 29.95 in /  1014.1 hPa SW 2.7 mph /  4.3 km/h 3.5 mph /  5.6 km/h 95 % 0.00 in /  0 mm
07:13 59.0 °F /  15 °C 57.6 °F /  14.2 °C 29.95 in /  1014.1 hPa SW 4.1 mph /  6.6 km/h 4.6 mph /  7.4 km/h 95 % 0.00 in /  0 mm
07:18 59.3 °F /  15.2 °C 57.9 °F /  14.4 °C 29.95 in /  1014.1 hPa WSW 4.8 mph /  7.7 km/h 5.8 mph /  9.3 km/h 95 % 0.00 in /  0 mm
07:23 59.5 °F /  15.3 °C 58.1 °F /  14.5 °C 29.95 in /  1014.1 hPa SSW 5.0 mph /  8 km/h 8.1 mph /  13 km/h 95 % 0.00 in /  0 mm
07:28 59.9 °F /  15.5 °C 58.5 °F /  14.7 °C 29.95 in /  1014.1 hPa SSW 3.0 mph /  4.8 km/h 6.0 mph /  9.7 km/h 95 % 0.00 in /  0 mm
07:33 60.2 °F /  15.7 °C 58.8 °F /  14.9 °C 29.94 in /  1013.8 hPa SSW 4.7 mph /  7.6 km/h 8.1 mph /  13 km/h 95 % 0.00 in /  0 mm
07:38 60.7 °F /  15.9 °C 59.0 °F /  15 °C 29.95 in /  1014.1 hPa SW 5.7 mph /  9.2 km/h 8.1 mph /  13 km/h 94 % 0.00 in /  0 mm
07:43 61.2 °F /  16.2 °C 59.5 °F /  15.3 °C 29.94 in /  1013.8 hPa SW 3.5 mph /  5.6 km/h 6.9 mph /  11.1 km/h 94 % 0.00 in /  0 mm
07:48 61.7 °F /  16.5 °C 59.7 °F /  15.4 °C 29.94 in /  1013.8 hPa WSW 4.8 mph /  7.7 km/h 7.0 mph /  11.3 km/h 93 % 0.00 in /  0 mm
07:53 62.2 °F /  16.8 °C 59.8 °F /  15.4 °C 29.94 in /  1013.8 hPa SSW 6.0 mph /  9.7 km/h 9.2 mph /  14.8 km/h 92 % 0.00 in /  0 mm
07:58 62.7 °F /  17.1 °C 60.0 °F /  15.6 °C 29.94 in /  1013.8 hPa SW 4.0 mph /  6.4 km/h 7.0 mph /  11.3 km/h 91 % 0.00 in /  0 mm
08:03 63.2 °F /  17.3 °C 60.2 °F /  15.7 °C 29.94 in /  1013.8 hPa SW 5.7 mph /  9.2 km/h 9.2 mph /  14.8 km/h 90 % 0.00 in /  0 mm
08:08 63.8 °F /  17.7 °C 60.5 °F /  15.8 °C 29.94 in /  1013.8 hPa SW 5.7 mph /  9.2 km/h 10.4 mph /  16.7 km/h 89 % 0.00 in /  0 mm
08:13 64.3 °F /  17.9 °C 60.7 °F /  15.9 °C 29.94 in /  1013.8 hPa SSW 4.6 mph /  7.4 km/h 8.1 mph /  13 km/h 88 % 0.00 in /  0 mm
08:18 64.8 °F /  18.2 °C 60.8 °F /  16 °C 29.94 in /  1013.8 hPa SSW 4.8 mph /  7.7 km/h 8.1 mph /  13 km/h 87 % 0.00 in /  0 mm
08:23 65.4 °F /  18.6 °C 60.8 °F /  16 °C 29.93 in /  1013.4 hPa SSW 5.3 mph /  8.5 km/h 8.1 mph /  13 km/h 85 % 0.00 in /  0 mm
08:28 65.8 °F /  18.8 °C 60.8 °F /  16 °C 29.93 in /  1013.4 hPa SW 6.3 mph /  10.1 km/h 11.0 mph /  17.7 km/h 84 % 0.00 in /  0 mm
08:33 66.3 °F /  19.1 °C 61.0 °F /  16.1 °C 29.93 in /  1013.4 hPa SSW 6.5 mph /  10.5 km/h 10.0 mph /  16.1 km/h 83 % 0.00 in /  0 mm
08:38 66.7 °F /  19.3 °C 60.7 °F /  15.9 °C 29.93 in /  1013.4 hPa SSW 7.1 mph /  11.4 km/h 9.2 mph /  14.8 km/h 81 % 0.00 in /  0 mm
08:43 67.2 °F /  19.6 °C 60.8 °F /  16 °C 29.93 in /  1013.4 hPa SW 7.4 mph /  11.9 km/h 11.5 mph /  18.5 km/h 80 % 0.00 in /  0 mm
08:48 67.8 °F /  19.9 °C 61.4 °F /  16.3 °C 29.93 in /  1013.4 hPa South 5.1 mph /  8.2 km/h 6.9 mph /  11.1 km/h 80 % 0.00 in /  0 mm
08:53 68.5 °F /  20.3 °C 61.4 °F /  16.3 °C 29.92 in /  1013.1 hPa SSW 6.5 mph /  10.5 km/h 8.1 mph /  13 km/h 78 % 0.00 in /  0 mm
08:58 69.1 °F /  20.6 °C 61.6 °F /  16.4 °C 29.93 in /  1013.4 hPa South 5.4 mph /  8.7 km/h 6.9 mph /  11.1 km/h 77 % 0.00 in /  0 mm
09:03 69.8 °F /  21 °C 61.5 °F /  16.4 °C 29.92 in /  1013.1 hPa SSW 4.3 mph /  6.9 km/h 6.0 mph /  9.7 km/h 75 % 0.00 in /  0 mm
09:08 70.5 °F /  21.4 °C 61.4 °F /  16.3 °C 29.93 in /  1013.4 hPa WSW 5.4 mph /  8.7 km/h 10.4 mph /  16.7 km/h 73 % 0.00 in /  0 mm
09:13 71.1 °F /  21.7 °C 61.2 °F /  16.2 °C 29.93 in /  1013.4 hPa West 5.5 mph /  8.9 km/h 9.2 mph /  14.8 km/h 71 % 0.00 in /  0 mm
09:18 71.9 °F /  22.2 °C 61.2 °F /  16.2 °C 29.92 in /  1013.1 hPa WSW 6.9 mph /  11.1 km/h 9.2 mph /  14.8 km/h 69 % 0.00 in /  0 mm
09:24 72.6 °F /  22.6 °C 61.4 °F /  16.3 °C 29.92 in /  1013.1 hPa SSW 3.2 mph /  5.1 km/h 5.8 mph /  9.3 km/h 68 % 0.00 in /  0 mm
09:29 73.3 °F /  22.9 °C 61.3 °F /  16.3 °C 29.92 in /  1013.1 hPa SSW 7.8 mph /  12.6 km/h 10.4 mph /  16.7 km/h 66 % 0.00 in /  0 mm
09:34 73.9 °F /  23.3 °C 61.4 °F /  16.3 °C 29.92 in /  1013.1 hPa WSW 4.5 mph /  7.2 km/h 9.0 mph /  14.5 km/h 65 % 0.00 in /  0 mm
09:39 74.7 °F /  23.7 °C 61.7 °F /  16.5 °C 29.92 in /  1013.1 hPa WNW 6.0 mph /  9.7 km/h 8.1 mph /  13 km/h 64 % 0.00 in /  0 mm
09:44 75.3 °F /  24.1 °C 61.8 °F /  16.6 °C 29.92 in /  1013.1 hPa WSW 3.6 mph /  5.8 km/h 8.1 mph /  13 km/h 63 % 0.00 in /  0 mm
09:49 76.0 °F /  24.4 °C 61.6 °F /  16.4 °C 29.92 in /  1013.1 hPa SSW 6.6 mph /  10.6 km/h 11.5 mph /  18.5 km/h 61 % 0.00 in /  0 mm
09:54 76.7 °F /  24.8 °C 61.8 °F /  16.6 °C 29.91 in /  1012.8 hPa WSW 2.3 mph /  3.7 km/h 9.2 mph /  14.8 km/h 60 % 0.00 in /  0 mm
09:59 77.1 °F /  25.1 °C 61.2 °F /  16.2 °C 29.92 in /  1013.1 hPa SW 5.8 mph /  9.3 km/h 12.0 mph /  19.3 km/h 58 % 0.00 in /  0 mm
10:04 77.0 °F /  25 °C 60.6 °F /  15.9 °C 29.92 in /  1013.1 hPa West 4.2 mph /  6.8 km/h 6.9 mph /  11.1 km/h 57 % 0.00 in /  0 mm
10:09 76.7 °F /  24.8 °C 59.8 °F /  15.4 °C 29.92 in /  1013.1 hPa NW 4.3 mph /  6.9 km/h 9.2 mph /  14.8 km/h 56 % 0.00 in /  0 mm
10:14 76.7 °F /  24.8 °C 60.3 °F /  15.7 °C 29.92 in /  1013.1 hPa WSW 8.1 mph /  13 km/h 16.1 mph /  25.9 km/h 57 % 0.00 in /  0 mm
10:19 76.7 °F /  24.8 °C 59.8 °F /  15.4 °C 29.91 in /  1012.8 hPa WSW 6.7 mph /  10.8 km/h 11.5 mph /  18.5 km/h 56 % 0.00 in /  0 mm
10:24 76.6 °F /  24.8 °C 59.7 °F /  15.4 °C 29.91 in /  1012.8 hPa SW 6.7 mph /  10.8 km/h 11.5 mph /  18.5 km/h 56 % 0.00 in /  0 mm
10:29 76.6 °F /  24.8 °C 60.2 °F /  15.7 °C 29.91 in /  1012.8 hPa WNW 4.3 mph /  6.9 km/h 11.5 mph /  18.5 km/h 57 % 0.00 in /  0 mm
10:34 76.6 °F /  24.8 °C 60.2 °F /  15.7 °C 29.91 in /  1012.8 hPa WSW 5.6 mph /  9 km/h 11.5 mph /  18.5 km/h 57 % 0.00 in /  0 mm
10:39 76.9 °F /  24.9 °C 61.5 °F /  16.4 °C 29.90 in /  1012.4 hPa SW 3.6 mph /  5.8 km/h 8.1 mph /  13 km/h 59 % 0.00 in /  0 mm
10:45 77.3 °F /  25.2 °C 60.4 °F /  15.8 °C 29.90 in /  1012.4 hPa SSW 4.9 mph /  7.9 km/h 11.5 mph /  18.5 km/h 56 % 0.00 in /  0 mm
10:50 77.7 °F /  25.4 °C 60.8 °F /  16 °C 29.90 in /  1012.4 hPa SSW 2.4 mph /  3.9 km/h 6.9 mph /  11.1 km/h 56 % 0.00 in /  0 mm
10:55 78.0 °F /  25.6 °C 60.0 °F /  15.6 °C 29.89 in /  1012.1 hPa SW 5.6 mph /  9 km/h 12.7 mph /  20.4 km/h 54 % 0.00 in /  0 mm
11:00 78.3 °F /  25.7 °C 61.3 °F /  16.3 °C 29.89 in /  1012.1 hPa West 3.4 mph /  5.5 km/h 5.8 mph /  9.3 km/h 56 % 0.00 in /  0 mm
11:05 78.9 °F /  26.1 °C 60.3 °F /  15.7 °C 29.89 in /  1012.1 hPa WSW 4.7 mph /  7.6 km/h 10.4 mph /  16.7 km/h 53 % 0.00 in /  0 mm
11:10 79.5 °F /  26.4 °C 60.3 °F /  15.7 °C 29.89 in /  1012.1 hPa WSW 5.9 mph /  9.5 km/h 11.5 mph /  18.5 km/h 52 % 0.00 in /  0 mm
11:15 80.1 °F /  26.7 °C 59.8 °F /  15.4 °C 29.89 in /  1012.1 hPa West 4.2 mph /  6.8 km/h 9.2 mph /  14.8 km/h 50 % 0.00 in /  0 mm
11:20 80.5 °F /  26.9 °C 60.7 °F /  15.9 °C 29.89 in /  1012.1 hPa WSW 6.8 mph /  10.9 km/h 9.2 mph /  14.8 km/h 51 % 0.00 in /  0 mm
11:25 80.9 °F /  27.2 °C 59.9 °F /  15.5 °C 29.89 in /  1012.1 hPa SW 7.5 mph /  12.1 km/h 15.0 mph /  24.1 km/h 49 % 0.00 in /  0 mm
11:30 81.0 °F /  27.2 °C 60.0 °F /  15.6 °C 29.89 in /  1012.1 hPa WSW 6.9 mph /  11.1 km/h 13.8 mph /  22.2 km/h 49 % 0.00 in /  0 mm
11:35 81.2 °F /  27.3 °C 60.2 °F /  15.7 °C 29.89 in /  1012.1 hPa WNW 6.8 mph /  10.9 km/h 12.7 mph /  20.4 km/h 49 % 0.00 in /  0 mm
11:40 81.2 °F /  27.3 °C 60.2 °F /  15.7 °C 29.88 in /  1011.7 hPa NW 3.7 mph /  6 km/h 13.8 mph /  22.2 km/h 49 % 0.00 in /  0 mm
11:45 81.4 °F /  27.4 °C 59.2 °F /  15.1 °C 29.88 in /  1011.7 hPa SW 7.8 mph /  12.6 km/h 16.1 mph /  25.9 km/h 47 % 0.00 in /  0 mm
11:50 81.5 °F /  27.5 °C 59.9 °F /  15.5 °C 29.88 in /  1011.7 hPa WSW 5.9 mph /  9.5 km/h 11.5 mph /  18.5 km/h 48 % 0.00 in /  0 mm
11:55 81.3 °F /  27.4 °C 59.1 °F /  15.1 °C 29.88 in /  1011.7 hPa WSW 7.3 mph /  11.7 km/h 11.5 mph /  18.5 km/h 47 % 0.00 in /  0 mm
12:00 81.0 °F /  27.2 °C 58.9 °F /  14.9 °C 29.88 in /  1011.7 hPa WSW 5.4 mph /  8.7 km/h 8.1 mph /  13 km/h 47 % 0.00 in /  0 mm
12:05 80.7 °F /  27.1 °C 59.2 °F /  15.1 °C 29.88 in /  1011.7 hPa WSW 6.2 mph /  10 km/h 12.7 mph /  20.4 km/h 48 % 0.00 in /  0 mm
12:10 80.9 °F /  27.2 °C 59.4 °F /  15.2 °C 29.87 in /  1011.4 hPa SW 6.7 mph /  10.8 km/h 11.5 mph /  18.5 km/h 48 % 0.00 in /  0 mm
12:15 81.2 °F /  27.3 °C 59.6 °F /  15.3 °C 29.87 in /  1011.4 hPa SW 6.3 mph /  10.1 km/h 11.5 mph /  18.5 km/h 48 % 0.00 in /  0 mm
12:20 81.2 °F /  27.3 °C 59.1 °F /  15.1 °C 29.86 in /  1011.1 hPa WSW 4.7 mph /  7.6 km/h 11.5 mph /  18.5 km/h 47 % 0.00 in /  0 mm
12:25 81.2 °F /  27.3 °C 58.5 °F /  14.7 °C 29.86 in /  1011.1 hPa WSW 7.3 mph /  11.7 km/h 12.7 mph /  20.4 km/h 46 % 0.00 in /  0 mm
12:30 81.2 °F /  27.3 °C 58.5 °F /  14.7 °C 29.85 in /  1010.7 hPa SW 4.0 mph /  6.4 km/h 6.9 mph /  11.1 km/h 46 % 0.00 in /  0 mm
12:35 81.5 °F /  27.5 °C 58.7 °F /  14.8 °C 29.85 in /  1010.7 hPa SW 7.0 mph /  11.3 km/h 17.0 mph /  27.4 km/h 46 % 0.00 in /  0 mm
12:40 82.2 °F /  27.9 °C 58.1 °F /  14.5 °C 29.85 in /  1010.7 hPa WSW 7.3 mph /  11.7 km/h 13.8 mph /  22.2 km/h 44 % 0.00 in /  0 mm
12:45 82.8 °F /  28.2 °C 59.3 °F /  15.2 °C 29.84 in /  1010.4 hPa West 4.3 mph /  6.9 km/h 8.1 mph /  13 km/h 45 % 0.00 in /  0 mm
12:50 83.6 °F /  28.7 °C 59.4 °F /  15.2 °C 29.84 in /  1010.4 hPa WSW 6.4 mph /  10.3 km/h 9.2 mph /  14.8 km/h 44 % 0.00 in /  0 mm
12:55 84.1 °F /  28.9 °C 58.5 °F /  14.7 °C 29.84 in /  1010.4 hPa WSW 5.4 mph /  8.7 km/h 15.0 mph /  24.1 km/h 42 % 0.00 in /  0 mm
12:58 84.5 °F /  29.2 °C 58.9 °F /  14.9 °C 29.84 in /  1010.4 hPa WSW 7.4 mph /  11.9 km/h 9.2 mph /  14.8 km/h 42 % 0.00 in /  0 mm
13:03 85.1 °F /  29.5 °C 58.8 °F /  14.9 °C 29.84 in /  1010.4 hPa SW 7.5 mph /  12.1 km/h 20.7 mph /  33.3 km/h 41 % 0.00 in /  0 mm
13:08 85.3 °F /  29.6 °C 58.2 °F /  14.6 °C 29.83 in /  1010 hPa West 9.3 mph /  15 km/h 12.7 mph /  20.4 km/h 40 % 0.00 in /  0 mm
13:13 85.3 °F /  29.6 °C 56.8 °F /  13.8 °C 29.83 in /  1010 hPa WSW 10.0 mph /  16.1 km/h 17.0 mph /  27.4 km/h 38 % 0.00 in /  0 mm
13:18 85.4 °F /  29.7 °C 56.2 °F /  13.4 °C 29.83 in /  1010 hPa West 6.3 mph /  10.1 km/h 19.6 mph /  31.5 km/h 37 % 0.00 in /  0 mm
13:23 85.4 °F /  29.7 °C 56.2 °F /  13.4 °C 29.82 in /  1009.7 hPa WNW 7.8 mph /  12.6 km/h 11.5 mph /  18.5 km/h 37 % 0.00 in /  0 mm
13:28 85.4 °F /  29.7 °C 55.4 °F /  13 °C 29.82 in /  1009.7 hPa SW 7.5 mph /  12.1 km/h 18.4 mph /  29.6 km/h 36 % 0.00 in /  0 mm
13:33 85.3 °F /  29.6 °C 56.1 °F /  13.4 °C 29.82 in /  1009.7 hPa WSW 7.8 mph /  12.6 km/h 10.4 mph /  16.7 km/h 37 % 0.00 in /  0 mm
13:38 85.5 °F /  29.7 °C 55.5 °F /  13.1 °C 29.82 in /  1009.7 hPa SW 9.4 mph /  15.1 km/h 18.4 mph /  29.6 km/h 36 % 0.00 in /  0 mm
13:43 85.6 °F /  29.8 °C 54.8 °F /  12.7 °C 29.82 in /  1009.7 hPa SW 9.5 mph /  15.3 km/h 18.4 mph /  29.6 km/h 35 % 0.00 in /  0 mm
13:48 85.7 °F /  29.8 °C 56.4 °F /  13.6 °C 29.81 in /  1009.4 hPa WNW 7.3 mph /  11.7 km/h 13.8 mph /  22.2 km/h 37 % 0.00 in /  0 mm
13:53 85.8 °F /  29.9 °C 55.8 °F /  13.2 °C 29.81 in /  1009.4 hPa WSW 9.2 mph /  14.8 km/h 9.2 mph /  14.8 km/h 36 % 0.00 in /  0 mm
13:58 85.7 °F /  29.8 °C 55.7 °F /  13.2 °C 29.81 in /  1009.4 hPa WSW 9.3 mph /  15 km/h 15.0 mph /  24.1 km/h 36 % 0.00 in /  0 mm
14:03 85.8 °F /  29.9 °C 56.5 °F /  13.6 °C 29.80 in /  1009 hPa WSW 7.7 mph /  12.4 km/h 11.5 mph /  18.5 km/h 37 % 0.00 in /  0 mm
14:08 86.1 °F /  30.1 °C 56.0 °F /  13.3 °C 29.80 in /  1009 hPa SW 6.0 mph /  9.7 km/h 13.8 mph /  22.2 km/h 36 % 0.00 in /  0 mm
14:13 86.3 °F /  30.2 °C 56.2 °F /  13.4 °C 29.80 in /  1009 hPa SW 7.2 mph /  11.6 km/h 18.4 mph /  29.6 km/h 36 % 0.00 in /  0 mm
14:18 86.5 °F /  30.3 °C 55.6 °F /  13.1 °C 29.80 in /  1009 hPa West 9.7 mph /  15.6 km/h 18.4 mph /  29.6 km/h 35 % 0.00 in /  0 mm
14:23 86.6 °F /  30.3 °C 55.7 °F /  13.2 °C 29.80 in /  1009 hPa WSW 4.3 mph /  6.9 km/h 17.3 mph /  27.8 km/h 35 % 0.00 in /  0 mm
14:28 87.0 °F /  30.6 °C 56.8 °F /  13.8 °C 29.79 in /  1008.7 hPa West 3.6 mph /  5.8 km/h 12.7 mph /  20.4 km/h 36 % 0.00 in /  0 mm
14:33 87.1 °F /  30.6 °C 56.1 °F /  13.4 °C 29.79 in /  1008.7 hPa WNW 5.0 mph /  8 km/h 15.0 mph /  24.1 km/h 35 % 0.00 in /  0 mm
14:38 87.1 °F /  30.6 °C 56.1 °F /  13.4 °C 29.79 in /  1008.7 hPa SW 5.3 mph /  8.5 km/h 15.0 mph /  24.1 km/h 35 % 0.00 in /  0 mm
14:43 87.0 °F /  30.6 °C 56.0 °F /  13.3 °C 29.79 in /  1008.7 hPa WSW 4.0 mph /  6.4 km/h 6.9 mph /  11.1 km/h 35 % 0.00 in /  0 mm
14:48 87.0 °F /  30.6 °C 56.0 °F /  13.3 °C 29.79 in /  1008.7 hPa WNW 5.6 mph /  9 km/h 11.0 mph /  17.7 km/h 35 % 0.00 in /  0 mm
14:53 87.0 °F /  30.6 °C 56.8 °F /  13.8 °C 29.78 in /  1008.4 hPa SW 6.8 mph /  10.9 km/h 9.2 mph /  14.8 km/h 36 % 0.00 in /  0 mm
14:58 86.8 °F /  30.4 °C 56.6 °F /  13.7 °C 29.78 in /  1008.4 hPa WSW 7.2 mph /  11.6 km/h 12.0 mph /  19.3 km/h 36 % 0.00 in /  0 mm
15:03 86.7 °F /  30.4 °C 56.6 °F /  13.7 °C 29.77 in /  1008 hPa WSW 8.1 mph /  13 km/h 19.6 mph /  31.5 km/h 36 % 0.00 in /  0 mm
15:08 86.9 °F /  30.5 °C 57.5 °F /  14.2 °C 29.77 in /  1008 hPa SW 11.2 mph /  18 km/h 16.1 mph /  25.9 km/h 37 % 0.00 in /  0 mm
15:13 87.1 °F /  30.6 °C 59.1 °F /  15.1 °C 29.77 in /  1008 hPa SSW 7.8 mph /  12.6 km/h 10.4 mph /  16.7 km/h 39 % 0.00 in /  0 mm
15:18 87.2 °F /  30.7 °C 59.9 °F /  15.5 °C 29.77 in /  1008 hPa SSW 9.2 mph /  14.8 km/h 18.4 mph /  29.6 km/h 40 % 0.00 in /  0 mm
15:23 87.2 °F /  30.7 °C 59.2 °F /  15.1 °C 29.76 in /  1007.7 hPa South 7.5 mph /  12.1 km/h 13.8 mph /  22.2 km/h 39 % 0.00 in /  0 mm
15:28 86.8 °F /  30.4 °C 59.6 °F /  15.3 °C 29.76 in /  1007.7 hPa SSW 5.6 mph /  9 km/h 9.2 mph /  14.8 km/h 40 % 0.00 in /  0 mm
15:33 86.7 °F /  30.4 °C 58.8 °F /  14.9 °C 29.76 in /  1007.7 hPa South 7.6 mph /  12.2 km/h 11.5 mph /  18.5 km/h 39 % 0.00 in /  0 mm
15:39 86.4 °F /  30.2 °C 59.9 °F /  15.5 °C 29.75 in /  1007.3 hPa SSW 7.3 mph /  11.7 km/h 12.0 mph /  19.3 km/h 41 % 0.00 in /  0 mm
15:44 85.8 °F /  29.9 °C 58.7 °F /  14.8 °C 29.75 in /  1007.3 hPa SSW 4.0 mph /  6.4 km/h 5.8 mph /  9.3 km/h 40 % 0.00 in /  0 mm
15:49 85.4 °F /  29.7 °C 59.7 °F /  15.4 °C 29.75 in /  1007.3 hPa WSW 4.4 mph /  7.1 km/h 7.0 mph /  11.3 km/h 42 % 0.00 in /  0 mm
15:54 85.2 °F /  29.6 °C 58.2 °F /  14.6 °C 29.75 in /  1007.3 hPa SSW 9.5 mph /  15.3 km/h 15.0 mph /  24.1 km/h 40 % 0.00 in /  0 mm
15:59 84.7 °F /  29.3 °C 58.4 °F /  14.7 °C 29.75 in /  1007.3 hPa SSW 9.7 mph /  15.6 km/h 16.1 mph /  25.9 km/h 41 % 0.00 in /  0 mm
16:04 84.2 °F /  29 °C 57.9 °F /  14.4 °C 29.75 in /  1007.3 hPa SSW 8.5 mph /  13.7 km/h 13.8 mph /  22.2 km/h 41 % 0.00 in /  0 mm
16:09 83.8 °F /  28.8 °C 58.3 °F /  14.6 °C 29.75 in /  1007.3 hPa SSW 3.0 mph /  4.8 km/h 4.6 mph /  7.4 km/h 42 % 0.00 in /  0 mm
16:14 83.5 °F /  28.6 °C 58.0 °F /  14.4 °C 29.75 in /  1007.3 hPa SW 7.3 mph /  11.7 km/h 11.5 mph /  18.5 km/h 42 % 0.00 in /  0 mm
16:19 83.2 °F /  28.4 °C 57.7 °F /  14.3 °C 29.75 in /  1007.3 hPa SSW 6.8 mph /  10.9 km/h 10.4 mph /  16.7 km/h 42 % 0.00 in /  0 mm
16:24 82.8 °F /  28.2 °C 57.4 °F /  14.1 °C 29.75 in /  1007.3 hPa WSW 4.7 mph /  7.6 km/h 7.0 mph /  11.3 km/h 42 % 0.00 in /  0 mm
16:29 82.5 °F /  28.1 °C 55.7 °F /  13.2 °C 29.75 in /  1007.3 hPa SW 7.5 mph /  12.1 km/h 11.5 mph /  18.5 km/h 40 % 0.00 in /  0 mm
16:34 82.2 °F /  27.9 °C 55.5 °F /  13.1 °C 29.75 in /  1007.3 hPa WSW 5.0 mph /  8 km/h 11.5 mph /  18.5 km/h 40 % 0.00 in /  0 mm
16:39 81.6 °F /  27.6 °C 56.9 °F /  13.8 °C 29.75 in /  1007.3 hPa SW 5.6 mph /  9 km/h 11.0 mph /  17.7 km/h 43 % 0.00 in /  0 mm
16:44 81.2 °F /  27.3 °C 55.9 °F /  13.3 °C 29.75 in /  1007.3 hPa SW 9.0 mph /  14.5 km/h 13.8 mph /  22.2 km/h 42 % 0.00 in /  0 mm
16:49 81.0 °F /  27.2 °C 56.4 °F /  13.6 °C 29.75 in /  1007.3 hPa WSW 6.4 mph /  10.3 km/h 12.7 mph /  20.4 km/h 43 % 0.00 in /  0 mm
16:54 81.2 °F /  27.3 °C 56.6 °F /  13.7 °C 29.75 in /  1007.3 hPa SSW 5.2 mph /  8.4 km/h 15.0 mph /  24.1 km/h 43 % 0.00 in /  0 mm
16:59 81.2 °F /  27.3 °C 57.2 °F /  14 °C 29.74 in /  1007 hPa SW 5.3 mph /  8.5 km/h 9.2 mph /  14.8 km/h 44 % 0.00 in /  0 mm
17:04 81.3 °F /  27.4 °C 56.7 °F /  13.7 °C 29.74 in /  1007 hPa West 3.9 mph /  6.3 km/h 9.2 mph /  14.8 km/h 43 % 0.00 in /  0 mm
17:09 81.4 °F /  27.4 °C 57.4 °F /  14.1 °C 29.75 in /  1007.3 hPa WSW 3.9 mph /  6.3 km/h 6.9 mph /  11.1 km/h 44 % 0.00 in /  0 mm
17:14 81.2 °F /  27.3 °C 57.2 °F /  14 °C 29.75 in /  1007.3 hPa West 3.5 mph /  5.6 km/h 9.2 mph /  14.8 km/h 44 % 0.00 in /  0 mm
17:19 81.1 °F /  27.3 °C 57.1 °F /  13.9 °C 29.75 in /  1007.3 hPa WSW 4.9 mph /  7.9 km/h 6.0 mph /  9.7 km/h 44 % 0.00 in /  0 mm
17:24 80.7 °F /  27.1 °C 56.8 °F /  13.8 °C 29.75 in /  1007.3 hPa SW 5.6 mph /  9 km/h 10.4 mph /  16.7 km/h 44 % 0.00 in /  0 mm
17:29 80.2 °F /  26.8 °C 56.9 °F /  13.8 °C 29.74 in /  1007 hPa SW 5.7 mph /  9.2 km/h 15.0 mph /  24.1 km/h 45 % 0.00 in /  0 mm
17:34 80.0 °F /  26.7 °C 57.4 °F /  14.1 °C 29.74 in /  1007 hPa South 4.1 mph /  6.6 km/h 8.1 mph /  13 km/h 46 % 0.00 in /  0 mm
17:39 80.0 °F /  26.7 °C 57.4 °F /  14.1 °C 29.73 in /  1006.7 hPa WSW 5.1 mph /  8.2 km/h 11.5 mph /  18.5 km/h 46 % 0.00 in /  0 mm
17:44 80.3 °F /  26.8 °C 58.2 °F /  14.6 °C 29.73 in /  1006.7 hPa SW 5.4 mph /  8.7 km/h 9.2 mph /  14.8 km/h 47 % 0.00 in /  0 mm
17:49 80.5 °F /  26.9 °C 57.8 °F /  14.3 °C 29.73 in /  1006.7 hPa WSW 2.8 mph /  4.5 km/h 6.9 mph /  11.1 km/h 46 % 0.00 in /  0 mm
17:54 80.7 °F /  27.1 °C 58.0 °F /  14.4 °C 29.73 in /  1006.7 hPa SSW 1.1 mph /  1.8 km/h 4.0 mph /  6.4 km/h 46 % 0.00 in /  0 mm
17:59 80.7 °F /  27.1 °C 58.0 °F /  14.4 °C 29.73 in /  1006.7 hPa SSW 3.0 mph /  4.8 km/h 5.8 mph /  9.3 km/h 46 % 0.00 in /  0 mm
18:04 80.7 °F /  27.1 °C 58.0 °F /  14.4 °C 29.73 in /  1006.7 hPa SW 2.8 mph /  4.5 km/h 9.2 mph /  14.8 km/h 46 % 0.00 in /  0 mm
18:09 80.6 °F /  27 °C 57.9 °F /  14.4 °C 29.73 in /  1006.7 hPa SW 6.2 mph /  10 km/h 11.5 mph /  18.5 km/h 46 % 0.00 in /  0 mm
18:14 80.5 °F /  26.9 °C 57.2 °F /  14 °C 29.73 in /  1006.7 hPa SW 4.9 mph /  7.9 km/h 6.9 mph /  11.1 km/h 45 % 0.00 in /  0 mm
18:19 80.4 °F /  26.9 °C 57.1 °F /  13.9 °C 29.73 in /  1006.7 hPa SSW 5.3 mph /  8.5 km/h 9.2 mph /  14.8 km/h 45 % 0.00 in /  0 mm
18:24 80.3 °F /  26.8 °C 57.6 °F /  14.2 °C 29.73 in /  1006.7 hPa SSW 4.0 mph /  6.4 km/h 6.9 mph /  11.1 km/h 46 % 0.00 in /  0 mm
18:29 80.2 °F /  26.8 °C 57.5 °F /  14.2 °C 29.72 in /  1006.3 hPa SSW 5.1 mph /  8.2 km/h 7.0 mph /  11.3 km/h 46 % 0.00 in /  0 mm
18:34 80.0 °F /  26.7 °C 57.4 °F /  14.1 °C 29.72 in /  1006.3 hPa SSW 5.1 mph /  8.2 km/h 8.1 mph /  13 km/h 46 % 0.00 in /  0 mm
18:39 79.8 °F /  26.6 °C 57.2 °F /  14 °C 29.71 in /  1006 hPa SSW 7.3 mph /  11.7 km/h 9.2 mph /  14.8 km/h 46 % 0.00 in /  0 mm
18:44 79.7 °F /  26.5 °C 57.7 °F /  14.3 °C 29.71 in /  1006 hPa WSW 7.3 mph /  11.7 km/h 11.5 mph /  18.5 km/h 47 % 0.00 in /  0 mm
18:49 79.6 °F /  26.4 °C 57.6 °F /  14.2 °C 29.71 in /  1006 hPa South 8.3 mph /  13.4 km/h 12.7 mph /  20.4 km/h 47 % 0.00 in /  0 mm
18:55 79.4 °F /  26.3 °C 58.0 °F /  14.4 °C 29.71 in /  1006 hPa SSW 5.1 mph /  8.2 km/h 9.2 mph /  14.8 km/h 48 % 0.00 in /  0 mm
19:00 79.3 °F /  26.3 °C 58.5 °F /  14.7 °C 29.71 in /  1006 hPa SSW 4.2 mph /  6.8 km/h 6.9 mph /  11.1 km/h 49 % 0.00 in /  0 mm
19:05 79.1 °F /  26.2 °C 58.3 °F /  14.6 °C 29.71 in /  1006 hPa SSW 6.0 mph /  9.7 km/h 9.2 mph /  14.8 km/h 49 % 0.00 in /  0 mm
19:10 78.9 °F /  26.1 °C 58.7 °F /  14.8 °C 29.72 in /  1006.3 hPa South 4.0 mph /  6.4 km/h 6.0 mph /  9.7 km/h 50 % 0.00 in /  0 mm
19:15 78.5 °F /  25.8 °C 59.4 °F /  15.2 °C 29.71 in /  1006 hPa South 5.3 mph /  8.5 km/h 10.4 mph /  16.7 km/h 52 % 0.00 in /  0 mm
19:20 78.1 °F /  25.6 °C 59.6 °F /  15.3 °C 29.71 in /  1006 hPa SSW 2.3 mph /  3.7 km/h 5.0 mph /  8 km/h 53 % 0.00 in /  0 mm
19:25 77.6 °F /  25.3 °C 59.6 °F /  15.3 °C 29.72 in /  1006.3 hPa SSW 6.7 mph /  10.8 km/h 12.0 mph /  19.3 km/h 54 % 0.00 in /  0 mm
19:30 77.1 °F /  25.1 °C 59.7 °F /  15.4 °C 29.72 in /  1006.3 hPa SSE 4.9 mph /  7.9 km/h 9.2 mph /  14.8 km/h 55 % 0.00 in /  0 mm
19:35 76.6 °F /  24.8 °C 59.2 °F /  15.1 °C 29.72 in /  1006.3 hPa SW 6.0 mph /  9.7 km/h 9.0 mph /  14.5 km/h 55 % 0.00 in /  0 mm
19:40 76.1 °F /  24.5 °C 58.8 °F /  14.9 °C 29.72 in /  1006.3 hPa SSW 8.1 mph /  13 km/h 11.5 mph /  18.5 km/h 55 % 0.00 in /  0 mm
19:45 75.7 °F /  24.3 °C 58.4 °F /  14.7 °C 29.72 in /  1006.3 hPa SSW 6.2 mph /  10 km/h 11.5 mph /  18.5 km/h 55 % 0.00 in /  0 mm
19:50 75.4 °F /  24.1 °C 58.1 °F /  14.5 °C 29.73 in /  1006.7 hPa South 3.4 mph /  5.5 km/h 10.4 mph /  16.7 km/h 55 % 0.00 in /  0 mm
19:55 75.2 °F /  24 °C 57.9 °F /  14.4 °C 29.73 in /  1006.7 hPa SSW 6.1 mph /  9.8 km/h 12.7 mph /  20.4 km/h 55 % 0.00 in /  0 mm
20:00 74.9 °F /  23.8 °C 57.6 °F /  14.2 °C 29.73 in /  1006.7 hPa SSW 7.8 mph /  12.6 km/h 12.7 mph /  20.4 km/h 55 % 0.00 in /  0 mm
20:05 74.7 °F /  23.7 °C 57.5 °F /  14.2 °C 29.73 in /  1006.7 hPa WSW 4.5 mph /  7.2 km/h 9.2 mph /  14.8 km/h 55 % 0.00 in /  0 mm
20:10 74.4 °F /  23.6 °C 57.2 °F /  14 °C 29.73 in /  1006.7 hPa SSW 5.0 mph /  8 km/h 6.9 mph /  11.1 km/h 55 % 0.00 in /  0 mm
20:15 74.2 °F /  23.4 °C 57.0 °F /  13.9 °C 29.74 in /  1007 hPa South 1.6 mph /  2.6 km/h 4.6 mph /  7.4 km/h 55 % 0.00 in /  0 mm
20:20 74.0 °F /  23.3 °C 56.8 °F /  13.8 °C 29.74 in /  1007 hPa SW 4.8 mph /  7.7 km/h 6.0 mph /  9.7 km/h 55 % 0.00 in /  0 mm
20:25 73.9 °F /  23.3 °C 57.2 °F /  14 °C 29.74 in /  1007 hPa SW 4.3 mph /  6.9 km/h 7.0 mph /  11.3 km/h 56 % 0.00 in /  0 mm
20:30 73.7 °F /  23.2 °C 57.0 °F /  13.9 °C 29.74 in /  1007 hPa SW 2.2 mph /  3.5 km/h 5.8 mph /  9.3 km/h 56 % 0.00 in /  0 mm
20:35 73.7 °F /  23.2 °C 57.0 °F /  13.9 °C 29.74 in /  1007 hPa SSW 1.9 mph /  3.1 km/h 4.6 mph /  7.4 km/h 56 % 0.00 in /  0 mm
20:40 73.6 °F /  23.1 °C 56.9 °F /  13.8 °C 29.75 in /  1007.3 hPa SSW 1.7 mph /  2.7 km/h 6.9 mph /  11.1 km/h 56 % 0.00 in /  0 mm
20:45 73.7 °F /  23.2 °C 57.0 °F /  13.9 °C 29.78 in /  1008.4 hPa NNW 3.4 mph /  5.5 km/h 5.0 mph /  8 km/h 56 % 0.00 in /  0 mm
20:50 73.2 °F /  22.9 °C 55.0 °F /  12.8 °C 29.78 in /  1008.4 hPa NNW 7.0 mph /  11.3 km/h 11.5 mph /  18.5 km/h 53 % 0.00 in /  0 mm
20:55 72.6 °F /  22.6 °C 57.0 °F /  13.9 °C 29.79 in /  1008.7 hPa WNW 4.1 mph /  6.6 km/h 10.4 mph /  16.7 km/h 58 % 0.00 in /  0 mm
21:00 72.2 °F /  22.3 °C 57.5 °F /  14.2 °C 29.80 in /  1009 hPa North 4.7 mph /  7.6 km/h 10.4 mph /  16.7 km/h 60 % 0.00 in /  0 mm
21:05 71.7 °F /  22.1 °C 58.0 °F /  14.4 °C 29.80 in /  1009 hPa WNW 2.1 mph /  3.4 km/h 4.6 mph /  7.4 km/h 62 % 0.00 in /  0 mm
21:10 71.5 °F /  21.9 °C 58.2 °F /  14.6 °C 29.81 in /  1009.4 hPa WNW 1.7 mph /  2.7 km/h 3.5 mph /  5.6 km/h 63 % 0.00 in /  0 mm
21:15 71.1 °F /  21.7 °C 58.3 °F /  14.6 °C 29.81 in /  1009.4 hPa West 1.5 mph /  2.4 km/h 4.6 mph /  7.4 km/h 64 % 0.00 in /  0 mm
21:20 70.7 °F /  21.5 °C 58.4 °F /  14.7 °C 29.82 in /  1009.7 hPa West 2.5 mph /  4 km/h 3.5 mph /  5.6 km/h 65 % 0.00 in /  0 mm
21:22 70.4 °F /  21.3 °C 58.1 °F /  14.5 °C 29.82 in /  1009.7 hPa West 0.9 mph /  1.4 km/h 4.6 mph /  7.4 km/h 65 % 0.00 in /  0 mm
21:27 69.9 °F /  21.1 °C 58.9 °F /  14.9 °C 29.82 in /  1009.7 hPa West 2.6 mph /  4.2 km/h 5.8 mph /  9.3 km/h 68 % 0.00 in /  0 mm
21:32 69.6 °F /  20.9 °C 59.0 °F /  15 °C 29.82 in /  1009.7 hPa WNW 1.4 mph /  2.3 km/h 3.5 mph /  5.6 km/h 69 % 0.00 in /  0 mm
21:37 69.4 °F /  20.8 °C 59.2 °F /  15.1 °C 29.82 in /  1009.7 hPa West 1.5 mph /  2.4 km/h 3.5 mph /  5.6 km/h 70 % 0.00 in /  0 mm
21:43 69.2 °F /  20.7 °C 59.4 °F /  15.2 °C 29.83 in /  1010 hPa WNW 3.1 mph /  5 km/h 5.0 mph /  8 km/h 71 % 0.00 in /  0 mm
21:48 69.0 °F /  20.6 °C 60.0 °F /  15.6 °C 29.83 in /  1010 hPa SW 4.7 mph /  7.6 km/h 5.8 mph /  9.3 km/h 73 % 0.00 in /  0 mm
21:53 69.0 °F /  20.6 °C 60.0 °F /  15.6 °C 29.83 in /  1010 hPa WSW 4.2 mph /  6.8 km/h 6.9 mph /  11.1 km/h 73 % 0.00 in /  0 mm
21:57 69.0 °F /  20.6 °C 59.6 °F /  15.3 °C 29.82 in /  1009.7 hPa West 5.7 mph /  9.2 km/h 9.2 mph /  14.8 km/h 72 % 0.00 in /  0 mm
22:02 68.8 °F /  20.4 °C 59.0 °F /  15 °C 29.83 in /  1010 hPa WNW 3.9 mph /  6.3 km/h 8.0 mph /  12.9 km/h 71 % 0.00 in /  0 mm
22:08 68.7 °F /  20.4 °C 58.9 °F /  14.9 °C 29.83 in /  1010 hPa WSW 5.4 mph /  8.7 km/h 8.1 mph /  13 km/h 71 % 0.00 in /  0 mm
22:13 68.6 °F /  20.3 °C 58.8 °F /  14.9 °C 29.82 in /  1009.7 hPa West 5.7 mph /  9.2 km/h 9.2 mph /  14.8 km/h 71 % 0.00 in /  0 mm
22:18 68.5 °F /  20.3 °C 59.5 °F /  15.3 °C 29.82 in /  1009.7 hPa WNW 2.2 mph /  3.5 km/h 9.0 mph /  14.5 km/h 73 % 0.00 in /  0 mm
22:23 68.3 °F /  20.2 °C 59.3 °F /  15.2 °C 29.82 in /  1009.7 hPa West 4.1 mph /  6.6 km/h 6.9 mph /  11.1 km/h 73 % 0.00 in /  0 mm
22:28 68.1 °F /  20.1 °C 59.5 °F /  15.3 °C 29.81 in /  1009.4 hPa WNW 2.8 mph /  4.5 km/h 8.1 mph /  13 km/h 74 % 0.00 in /  0 mm
22:33 67.9 °F /  19.9 °C 59.3 °F /  15.2 °C 29.81 in /  1009.4 hPa WNW 5.4 mph /  8.7 km/h 8.1 mph /  13 km/h 74 % 0.00 in /  0 mm
22:37 67.6 °F /  19.8 °C 59.4 °F /  15.2 °C 29.81 in /  1009.4 hPa WSW 4.1 mph /  6.6 km/h 7.0 mph /  11.3 km/h 75 % 0.00 in /  0 mm
22:42 67.5 °F /  19.7 °C 59.3 °F /  15.2 °C 29.80 in /  1009 hPa SW 2.2 mph /  3.5 km/h 4.0 mph /  6.4 km/h 75 % 0.00 in /  0 mm
22:47 67.3 °F /  19.6 °C 58.7 °F /  14.8 °C 29.80 in /  1009 hPa SW 2.6 mph /  4.2 km/h 8.1 mph /  13 km/h 74 % 0.00 in /  0 mm
22:53 67.1 °F /  19.5 °C 58.9 °F /  14.9 °C 29.80 in /  1009 hPa WSW 1.3 mph /  2.1 km/h 3.5 mph /  5.6 km/h 75 % 0.00 in /  0 mm
22:57 67.0 °F /  19.4 °C 58.4 °F /  14.7 °C 29.80 in /  1009 hPa WSW 1.9 mph /  3.1 km/h 9.2 mph /  14.8 km/h 74 % 0.00 in /  0 mm
23:03 66.8 °F /  19.3 °C 58.2 °F /  14.6 °C 29.80 in /  1009 hPa WSW 2.6 mph /  4.2 km/h 6.9 mph /  11.1 km/h 74 % 0.00 in /  0 mm
23:08 66.7 °F /  19.3 °C 58.5 °F /  14.7 °C 29.80 in /  1009 hPa WSW 3.1 mph /  5 km/h 6.0 mph /  9.7 km/h 75 % 0.00 in /  0 mm
23:13 66.6 °F /  19.2 °C 58.4 °F /  14.7 °C 29.80 in /  1009 hPa SSW 3.2 mph /  5.1 km/h 6.0 mph /  9.7 km/h 75 % 0.00 in /  0 mm
23:18 66.5 °F /  19.2 °C 58.3 °F /  14.6 °C 29.80 in /  1009 hPa SSW 2.0 mph /  3.2 km/h 6.9 mph /  11.1 km/h 75 % 0.00 in /  0 mm
23:23 66.5 °F /  19.2 °C 58.3 °F /  14.6 °C 29.80 in /  1009 hPa West 2.2 mph /  3.5 km/h 8.1 mph /  13 km/h 75 % 0.00 in /  0 mm
23:28 66.6 °F /  19.2 °C 58.4 °F /  14.7 °C 29.79 in /  1008.7 hPa WNW 2.0 mph /  3.2 km/h 3.5 mph /  5.6 km/h 75 % 0.00 in /  0 mm
23:33 66.6 °F /  19.2 °C 58.4 °F /  14.7 °C 29.79 in /  1008.7 hPa WSW 1.3 mph /  2.1 km/h 4.0 mph /  6.4 km/h 75 % 0.00 in /  0 mm
23:38 66.6 °F /  19.2 °C 58.4 °F /  14.7 °C 29.79 in /  1008.7 hPa SW 2.0 mph /  3.2 km/h 4.6 mph /  7.4 km/h 75 % 0.00 in /  0 mm
23:43 66.6 °F /  19.2 °C 58.4 °F /  14.7 °C 29.79 in /  1008.7 hPa SW 3.1 mph /  5 km/h 4.0 mph /  6.4 km/h 75 % 0.00 in /  0 mm
23:48 66.6 °F /  19.2 °C 58.4 °F /  14.7 °C 29.79 in /  1008.7 hPa SW 2.4 mph /  3.9 km/h 3.5 mph /  5.6 km/h 75 % 0.00 in /  0 mm
23:53 66.6 °F /  19.2 °C 58.4 °F /  14.7 °C 29.79 in /  1008.7 hPa SW 2.1 mph /  3.4 km/h 3.5 mph /  5.6 km/h 75 % 0.00 in /  0 mm
23:58 66.5 °F /  19.2 °C 58.3 °F /  14.6 °C 29.79 in /  1008.7 hPa SW 2.4 mph /  3.9 km/h 3.5 mph /  5.6 km/h 75 % 0.00 in /  0 mm
Crab Meadow Weather
Compliments of Weather Underground - 3 mb

Script developed by  Jim McMurry - jmcmurry@mwt.net Adapted for the template by  Wim van der Kuil - Leuven-Template.eu

Weather Terms: Wind Chill - An apparent temperature that describes the combined effect of wind and low temperature on exposed skin.